Time;durP1;ratioP1;P1;durP2;ratioP2;P2;SDS_P1;SDS_P2;PMS_P1;PMS_P2;Temp;Humidity;BMP_temperature;BMP_pressure;BME280_temperature;BME280_humidity;BME280_pressure;Samples;Min_cycle;Max_cycle;Signal;HPM_P1;HPM_P2
2021/11/04 00:01:35;;;;;;;12.60;6.43;;;;;;;5.28;94.29;98912.72;4987753;28;20065;-64
2021/11/04 00:04:25;;;;;;;9.85;5.97;;;;;;;5.25;94.54;98913.00;4986756;28;20053;-64
2021/11/04 00:07:12;;;;;;;10.00;5.72;;;;;;;5.35;93.97;98903.19;4991447;28;20428;-65
2021/11/04 00:09:58;;;;;;;8.25;5.47;;;;;;;5.32;94.00;98913.25;4991919;28;20053;-66
2021/11/04 00:12:43;;;;;;;10.82;5.30;;;;;;;5.31;93.80;98916.91;4988162;28;20077;-67
2021/11/04 00:15:28;;;;;;;8.27;5.43;;;;;;;5.30;94.23;98921.38;4987184;28;20058;-65
2021/11/04 00:18:14;;;;;;;8.48;5.85;;;;;;;5.39;93.66;98915.22;4991379;28;20049;-64
2021/11/04 00:21:00;;;;;;;10.77;5.47;;;;;;;5.33;93.64;98915.81;4991187;28;20136;-64
2021/11/04 00:23:45;;;;;;;11.60;6.38;;;;;;;5.26;94.42;98920.00;4990299;28;20053;-65
2021/11/04 00:26:30;;;;;;;10.93;5.85;;;;;;;5.23;94.33;98904.34;4992159;28;20072;-64
2021/11/04 00:29:15;;;;;;;11.23;6.50;;;;;;;5.19;94.63;98898.44;4989931;28;20057;-63
2021/11/04 00:32:01;;;;;;;10.82;6.30;;;;;;;5.23;94.14;98904.34;4991953;28;20424;-64
2021/11/04 00:34:46;;;;;;;8.90;6.00;;;;;;;5.26;94.04;98910.22;4990851;28;20542;-63
2021/11/04 00:37:32;;;;;;;12.13;6.03;;;;;;;5.22;94.27;98922.13;4991087;28;20061;-63
2021/11/04 00:40:20;;;;;;;10.60;6.07;;;;;;;5.19;94.38;98921.53;4990317;28;20049;-65
2021/11/04 00:43:05;;;;;;;9.02;5.97;;;;;;;5.37;93.71;98901.22;4988993;28;20092;-64
2021/11/04 00:45:51;;;;;;;10.55;6.15;;;;;;;5.37;93.26;98911.03;4999392;28;20093;-64
2021/11/04 00:48:36;;;;;;;11.67;6.73;;;;;;;5.39;93.20;98899.25;4991108;28;20431;-63
2021/11/04 00:51:21;;;;;;;11.57;7.30;;;;;;;5.26;93.97;98899.56;4991660;28;20046;-66
2021/11/04 00:54:07;;;;;;;9.82;6.22;;;;;;;5.21;94.70;98901.00;4989924;28;20049;-64
2021/11/04 00:56:52;;;;;;;11.00;5.35;;;;;;;5.32;94.04;98892.81;4989069;28;20677;-64
2021/11/04 00:59:37;;;;;;;12.85;6.43;;;;;;;5.37;93.71;98887.09;4989958;28;20184;-63
2021/11/04 01:02:22;;;;;;;10.43;6.53;;;;;;;5.32;94.33;98891.97;4989745;28;20254;-64
2021/11/04 01:05:07;;;;;;;14.73;6.85;;;;;;;5.35;94.17;98884.56;4991688;28;20061;-64
2021/11/04 01:07:53;;;;;;;10.95;5.82;;;;;;;5.28;94.29;98884.28;4989388;28;20065;-64
2021/11/04 01:10:40;;;;;;;9.48;5.05;;;;;;;5.27;94.44;98887.94;4991585;28;20061;-64
2021/11/04 01:13:25;;;;;;;8.20;5.40;;;;;;;5.27;94.33;98889.75;4984857;28;20042;-65
2021/11/04 01:16:10;;;;;;;8.65;5.15;;;;;;;5.23;94.80;98889.22;4990098;28;20053;-62
2021/11/04 01:18:55;;;;;;;13.03;7.40;;;;;;;5.20;94.08;98878.84;4990823;28;20084;-63
2021/11/04 01:21:40;;;;;;;11.90;6.90;;;;;;;5.15;94.32;98882.94;4990823;28;20407;-63
2021/11/04 01:24:25;;;;;;;12.27;7.32;;;;;;;5.10;95.04;98879.88;4990477;28;20374;-64
2021/11/04 01:27:12;;;;;;;10.40;6.28;;;;;;;5.06;95.35;98879.28;4991147;28;20285;-64
2021/11/04 01:29:57;;;;;;;12.20;6.85;;;;;;;5.06;95.06;98870.47;4989185;28;20062;-63
2021/11/04 01:32:42;;;;;;;14.63;7.22;;;;;;;5.13;94.72;98859.13;4988206;28;20061;-65
2021/11/04 01:35:26;;;;;;;12.10;6.57;;;;;;;5.31;93.88;98855.72;4990892;28;20057;-62
2021/11/04 01:38:11;;;;;;;13.23;7.50;;;;;;;5.22;94.62;98854.78;4989032;28;20049;-63
2021/11/04 01:40:57;;;;;;;11.77;7.05;;;;;;;5.14;94.97;98847.50;4988856;28;20467;-65
2021/11/04 01:43:44;;;;;;;11.55;7.18;;;;;;;5.37;94.29;98828.56;4989578;28;20049;-64
2021/11/04 01:46:29;;;;;;;14.55;7.95;;;;;;;5.24;94.24;98829.72;5004728;28;20104;-65
2021/11/04 01:49:15;;;;;;;14.25;7.28;;;;;;;5.26;94.45;98819.75;4994137;28;20420;-63
2021/11/04 01:52:00;;;;;;;9.43;6.30;;;;;;;5.28;94.37;98820.44;4990415;28;20077;-64
2021/11/04 01:54:45;;;;;;;13.43;6.88;;;;;;;5.27;94.02;98810.78;4988702;28;20060;-64
2021/11/04 01:57:30;;;;;;;14.85;6.88;;;;;;;5.32;94.12;98805.03;4988664;28;20065;-63
2021/11/04 02:00:20;;;;;;;12.68;6.68;;;;;;;5.28;94.30;98795.66;4990698;28;20464;-63
2021/11/04 02:03:11;;;;;;;12.63;6.70;;;;;;;5.33;94.01;98785.44;4990267;28;20066;-64
2021/11/04 02:06:03;;;;;;;12.35;7.53;;;;;;;5.28;93.12;98785.03;4990761;28;20116;-63
2021/11/04 02:08:54;;;;;;;15.18;7.80;;;;;;;5.18;94.22;98779.75;4985286;28;20061;-65
2021/11/04 02:11:45;;;;;;;11.32;6.60;;;;;;;5.17;94.42;98782.53;5006556;22;20053;-64
2021/11/04 02:14:33;;;;;;;12.57;6.75;;;;;;;5.17;95.23;98783.38;5006968;28;20077;-60
2021/11/04 02:17:22;;;;;;;14.50;8.80;;;;;;;5.17;95.14;98795.84;5008716;28;20057;-62
2021/11/04 02:20:08;;;;;;;13.43;8.23;;;;;;;5.11;95.35;98807.06;5009324;28;20056;-61
2021/11/04 02:22:58;;;;;;;;;;;;;;;5.12;95.71;98814.91;4986050;28;20061;-61
2021/11/04 02:25:46;;;;;;;11.20;7.15;;;;;;;5.16;95.94;98799.50;4975668;28;19933;-63
2021/11/04 02:28:33;;;;;;;14.88;8.55;;;;;;;5.17;95.76;98782.53;4975956;28;20062;-59
2021/11/04 02:31:20;;;;;;;16.75;8.50;;;;;;;5.19;95.72;98783.22;4983132;28;20439;-63
2021/11/04 02:34:05;;;;;;;;;;;;;;;5.19;96.06;98772.59;4989401;28;20065;-63
2021/11/04 02:36:51;;;;;;;14.90;8.23;;;;;;;5.18;95.82;98766.44;4984739;28;20446;-64
2021/11/04 02:39:37;;;;;;;15.40;8.43;;;;;;;5.17;95.90;98766.59;4985589;28;20090;-61
2021/11/04 02:42:24;;;;;;;13.88;7.97;;;;;;;5.22;95.64;98759.88;4991776;28;20118;-61
2021/11/04 02:45:13;;;;;;;14.52;8.07;;;;;;;5.18;95.71;98765.59;4989430;28;20507;-63
2021/11/04 02:47:59;;;;;;;12.40;7.63;;;;;;;5.19;95.64;98759.28;4979410;28;20101;-63
2021/11/04 02:50:47;;;;;;;16.67;8.45;;;;;;;5.19;95.51;98744.16;4981189;28;20139;-65
2021/11/04 02:53:31;;;;;;;14.27;8.07;;;;;;;5.22;95.63;98748.38;4991212;28;20082;-59
2021/11/04 02:56:17;;;;;;;15.43;7.93;;;;;;;5.29;95.34;98758.28;4985242;28;20140;-61
2021/11/04 02:59:03;;;;;;;14.57;8.20;;;;;;;5.20;96.07;98764.47;4986418;28;20189;-65
2021/11/04 03:01:50;;;;;;;;;;;;;;;5.17;95.54;98766.59;4982697;28;20312;-63
2021/11/04 03:04:35;;;;;;;18.45;9.60;;;;;;;5.18;95.78;98766.44;4985865;28;20303;-61
2021/11/04 03:07:20;;;;;;;17.42;10.23;;;;;;;5.24;95.63;98781.00;4989668;28;20061;-59
2021/11/04 03:10:06;;;;;;;15.40;8.95;;;;;;;5.21;95.71;98776.81;4989391;28;20049;-59
2021/11/04 03:12:52;;;;;;;24.80;9.85;;;;;;;5.17;96.13;98778.06;4979067;28;20179;-59
2021/11/04 03:15:40;;;;;;;;;;;;;;;5.16;95.74;98776.38;4985659;28;20104;-63
2021/11/04 03:18:27;;;;;;;16.40;9.45;;;;;;;5.22;96.23;98790.94;4988138;28;19976;-59
2021/11/04 03:21:14;;;;;;;17.05;8.68;;;;;;;5.22;96.04;98791.78;4991918;28;20180;-58
2021/11/04 03:23:59;;;;;;;;;;;;;;;5.22;96.10;98790.94;4983247;28;20102;-60
2021/11/04 03:26:46;;;;;;;14.82;8.80;;;;;;;5.27;95.11;98794.00;4977625;28;20306;-61
2021/11/04 03:29:36;;;;;;;17.92;9.02;;;;;;;5.34;94.57;98787.13;4976515;28;20074;-60
2021/11/04 03:32:23;;;;;;;17.25;8.98;;;;;;;5.33;94.96;98785.44;4981905;28;20424;-59
2021/11/04 03:35:10;;;;;;;15.60;9.07;;;;;;;5.32;94.88;98781.06;4988310;28;20193;-60
2021/11/04 03:37:56;;;;;;;19.65;10.27;;;;;;;5.27;95.41;98772.72;4990223;28;20420;-57
2021/11/04 03:40:43;;;;;;;;;;;;;;;5.41;94.31;98768.72;4977031;28;20062;-61
2021/11/04 03:43:28;;;;;;;17.33;8.68;;;;;;;5.40;94.33;98765.22;4982435;28;19933;-61
2021/11/04 03:46:13;;;;;;;14.97;8.63;;;;;;;5.43;94.11;98754.28;4988124;28;20057;-63
2021/11/04 03:49:01;;;;;;;16.30;9.33;;;;;;;5.40;93.86;98753.75;4984452;28;20073;-57
2021/11/04 03:51:49;;;;;;;18.33;9.98;;;;;;;5.51;93.66;98753.56;4985112;28;20379;-63
2021/11/04 03:54:36;;;;;;;15.27;8.90;;;;;;;5.51;93.26;98746.41;4986612;28;20512;-59
2021/11/04 03:57:23;;;;;;;16.42;9.93;;;;;;;5.47;94.06;98747.69;4984232;28;20057;-59
2021/11/04 04:00:12;;;;;;;18.23;9.43;;;;;;;5.38;94.49;98735.28;4985137;28;20124;-60
2021/11/04 04:02:57;;;;;;;17.00;9.18;;;;;;;5.49;93.95;98729.75;4982270;28;20459;-61
2021/11/04 04:05:43;;;;;;;17.95;9.93;;;;;;;5.52;93.25;98726.78;4982578;28;20156;-64
2021/11/04 04:08:29;;;;;;;18.08;10.00;;;;;;;5.44;93.95;98721.38;4985071;28;20057;-61
2021/11/04 04:11:15;;;;;;;20.52;11.48;;;;;;;5.40;94.20;98722.66;4980111;28;20058;-58
2021/11/04 04:14:00;;;;;;;19.37;9.70;;;;;;;5.55;93.44;98718.50;4982436;28;20058;-61
2021/11/04 04:16:45;;;;;;;17.65;10.18;;;;;;;5.57;93.26;98713.91;4988477;28;20056;-56
2021/11/04 04:19:30;;;;;;;15.20;9.00;;;;;;;5.47;93.84;98702.47;4988474;28;20049;-61
2021/11/04 04:22:17;;;;;;;19.35;10.07;;;;;;;5.46;93.98;98705.28;4985663;28;20053;-60
2021/11/04 04:25:01;;;;;;;17.83;9.35;;;;;;;5.44;93.61;98708.06;4979101;28;20329;-61
2021/11/04 04:27:47;;;;;;;13.60;8.10;;;;;;;5.48;93.85;98701.47;4977466;28;20052;-60
2021/11/04 04:30:32;;;;;;;20.88;11.20;;;;;;;5.62;93.35;98707.28;4983163;28;20070;-60
2021/11/04 04:33:17;;;;;;;17.13;9.20;;;;;;;5.52;93.71;98712.66;4986993;28;20050;-63
2021/11/04 04:36:02;;;;;;;406.65;197.95;;;;;;;5.62;92.57;98716.09;4983849;28;20532;-62
2021/11/04 04:38:49;;;;;;;47.25;24.00;;;;;;;5.72;92.53;98718.69;4982120;28;20116;-62
2021/11/04 04:41:33;;;;;;;18.63;11.20;;;;;;;5.65;92.32;98715.78;4983230;28;20065;-60
2021/11/04 04:44:18;;;;;;;41.00;24.27;;;;;;;5.89;92.08;98720.53;4987113;28;20054;-60
2021/11/04 04:47:04;;;;;;;26.85;16.92;;;;;;;6.00;90.72;98725.66;4980420;28;20061;-61
2021/11/04 04:49:49;;;;;;;82.87;57.37;;;;;;;5.88;91.52;98719.69;4973344;28;20096;-64
2021/11/04 04:52:34;;;;;;;21.55;12.50;;;;;;;5.85;92.50;98724.50;4976648;28;20065;-64
2021/11/04 04:55:21;;;;;;;49.83;36.28;;;;;;;5.79;92.99;98719.75;4981714;28;20125;-59
2021/11/04 04:58:06;;;;;;;19.77;10.25;;;;;;;5.94;91.30;98717.47;4972936;28;20097;-62
2021/11/04 05:00:51;;;;;;;21.33;12.07;;;;;;;5.98;91.41;98716.16;4973675;28;20527;-61
2021/11/04 05:03:36;;;;;;;20.27;12.55;;;;;;;5.93;91.32;98711.31;4983346;28;20057;-60
2021/11/04 05:06:21;;;;;;;18.50;11.40;;;;;;;6.02;91.54;98706.84;4987116;28;20117;-62
2021/11/04 05:09:06;;;;;;;18.48;10.38;;;;;;;5.86;91.96;98699.53;4990695;28;20064;-60
2021/11/04 05:11:52;;;;;;;19.42;11.23;;;;;;;5.74;92.67;98701.59;4977656;28;20057;-58
2021/11/04 05:14:37;;;;;;;20.10;11.40;;;;;;;5.79;92.89;98698.44;4977875;28;20058;-58
2021/11/04 05:17:22;;;;;;;24.63;12.52;;;;;;;5.81;92.85;98696.50;4997208;28;20184;-61
2021/11/04 05:20:09;;;;;;;20.60;11.02;;;;;;;5.76;92.35;98690.78;4972569;28;20207;-63
2021/11/04 05:22:54;;;;;;;28.67;19.33;;;;;;;5.86;91.89;98684.41;4972377;28;20158;-57
2021/11/04 05:25:39;;;;;;;21.75;11.48;;;;;;;5.75;92.45;98691.78;4977984;28;20061;-61
2021/11/04 05:28:26;;;;;;;22.55;11.65;;;;;;;5.88;92.16;98703.72;4981384;28;20073;-55
2021/11/04 05:31:11;;;;;;;17.75;10.93;;;;;;;5.81;92.35;98693.84;4980903;28;20061;-62
2021/11/04 05:33:56;;;;;;;22.77;11.10;;;;;;;6.09;91.80;98697.28;4981944;28;20057;-60
2021/11/04 05:36:41;;;;;;;26.40;15.33;;;;;;;5.98;91.57;98682.38;4985603;28;20058;-61
2021/11/04 05:39:26;;;;;;;25.60;12.27;;;;;;;6.07;91.81;98680.63;4987416;28;20053;-59
2021/11/04 05:42:11;;;;;;;24.25;13.65;;;;;;;5.98;91.81;98673.53;4979452;28;20066;-61
2021/11/04 05:44:57;;;;;;;26.70;13.13;;;;;;;6.00;91.27;98664.41;4988205;28;20089;-61
2021/11/04 05:47:42;;;;;;;25.33;14.40;;;;;;;6.15;90.82;98662.84;4983416;28;20196;-57
2021/11/04 05:50:27;;;;;;;37.53;20.00;;;;;;;6.19;90.36;98658.09;4974226;28;20528;-59
2021/11/04 05:53:13;;;;;;;38.33;25.70;;;;;;;6.07;90.96;98654.00;4982028;28;20062;-58
2021/11/04 05:55:58;;;;;;;32.35;17.65;;;;;;;5.95;92.18;98644.56;4978648;28;20145;-59
2021/11/04 05:58:43;;;;;;;29.70;15.15;;;;;;;5.75;92.45;98643.84;4982367;28;20174;-61
2021/11/04 06:01:29;;;;;;;28.10;15.88;;;;;;;5.98;92.52;98642.41;4980801;28;20185;-62
2021/11/04 06:04:14;;;;;;;29.92;15.75;;;;;;;6.06;91.42;98639.84;4972454;28;20095;-63
2021/11/04 06:06:59;;;;;;;31.30;15.63;;;;;;;6.04;91.95;98638.31;4987323;28;20577;-59
2021/11/04 06:09:44;;;;;;;50.75;27.90;;;;;;;5.87;92.24;98626.66;4984158;28;20109;-61
2021/11/04 06:12:29;;;;;;;36.67;17.35;;;;;;;5.86;91.31;98619.66;4986356;28;20190;-57
2021/11/04 06:15:15;;;;;;;47.47;28.08;;;;;;;5.94;91.58;98624.25;4986474;28;20059;-61
2021/11/04 06:18:01;;;;;;;40.73;19.30;;;;;;;6.03;91.26;98621.47;4996425;28;20427;-61
2021/11/04 06:20:46;;;;;;;42.47;22.08;;;;;;;5.95;91.99;98624.09;4973575;28;20308;-58
2021/11/04 06:23:31;;;;;;;36.05;17.27;;;;;;;5.87;92.22;98618.66;4980926;28;20061;-61
2021/11/04 06:26:17;;;;;;;41.08;19.67;;;;;;;5.70;92.14;98616.88;4973750;28;20078;-64
2021/11/04 06:29:02;;;;;;;45.58;21.90;;;;;;;5.67;92.30;98614.47;4976387;28;20057;-63
2021/11/04 06:31:47;;;;;;;41.13;21.38;;;;;;;5.70;92.68;98612.38;4988071;28;20061;-62
2021/11/04 06:34:34;;;;;;;42.67;20.95;;;;;;;5.83;92.32;98604.84;4982257;28;20428;-59
2021/11/04 06:37:19;;;;;;;49.30;22.67;;;;;;;5.51;92.60;98613.34;4982193;28;20189;-60
2021/11/04 06:40:08;;;;;;;49.72;22.83;;;;;;;5.60;92.95;98616.94;4983043;28;20057;-61
2021/11/04 06:42:53;;;;;;;48.97;23.77;;;;;;;5.66;92.63;98615.47;4974679;28;20062;-62
2021/11/04 06:45:40;;;;;;;43.72;22.00;;;;;;;5.38;93.86;98618.22;4990579;28;20140;-64
2021/11/04 06:48:32;;;;;;;150.20;51.03;;;;;;;5.43;93.96;98623.06;4986079;28;20534;-59
2021/11/04 06:51:22;;;;;;;50.92;23.60;;;;;;;5.48;93.73;98604.84;4974153;28;20062;-59
2021/11/04 06:54:08;;;;;;;55.65;28.88;;;;;;;5.38;93.93;98609.41;4980949;28;20061;-58
2021/11/04 06:56:54;;;;;;;48.55;24.70;;;;;;;5.41;93.92;98603.78;4983106;28;20188;-61
2021/11/04 06:59:42;;;;;;;47.47;23.70;;;;;;;5.45;93.71;98615.81;4980688;28;20161;-60
2021/11/04 07:02:33;;;;;;;58.22;27.00;;;;;;;5.28;94.29;98614.78;4983262;28;20144;-62
2021/11/04 07:05:18;;;;;;;64.65;30.85;;;;;;;5.58;92.74;98622.41;4979076;28;20409;-63
2021/11/04 07:08:05;;;;;;;60.55;27.00;;;;;;;5.43;92.98;98631.88;4982027;28;20062;-62
2021/11/04 07:10:57;;;;;;;51.85;24.33;;;;;;;5.46;92.66;98628.13;4991355;28;20181;-62
2021/11/04 07:13:46;;;;;;;70.63;32.67;;;;;;;5.41;93.55;98619.72;4978726;28;20181;-63
2021/11/04 07:16:32;;;;;;;64.30;27.33;;;;;;;5.58;93.05;98617.09;4983187;28;20528;-61
2021/11/04 07:19:19;;;;;;;57.75;26.00;;;;;;;5.35;93.52;98621.19;4988039;28;20140;-63
2021/11/04 07:22:18;;;;;;;62.30;24.77;;;;;;;5.39;94.60;98619.88;4976391;28;20613;-61
2021/11/04 07:25:07;;;;;;;60.92;24.65;;;;;;;5.59;92.18;98609.94;4988733;28;20725;-63
2021/11/04 07:27:57;;;;;;;68.65;31.92;;;;;;;5.59;93.43;98612.59;4972593;28;20100;-62
2021/11/04 07:30:43;;;;;;;49.80;25.10;;;;;;;5.61;93.24;98620.44;4990257;28;20520;-63
2021/11/04 07:33:33;;;;;;;50.88;23.10;;;;;;;5.61;93.41;98618.59;4984524;28;20062;-63
2021/11/04 07:36:20;;;;;;;57.22;25.17;;;;;;;5.36;93.72;98614.88;4979700;28;20058;-64
2021/11/04 07:39:06;;;;;;;74.55;36.10;;;;;;;5.53;93.64;98619.34;4981890;28;20174;-62
2021/11/04 07:41:54;;;;;;;48.72;23.10;;;;;;;5.62;93.70;98625.59;4981622;28;20532;-63
2021/11/04 07:44:39;;;;;;;49.92;23.58;;;;;;;5.76;92.46;98624.22;4976859;28;20186;-63
2021/11/04 07:47:24;;;;;;;52.17;23.35;;;;;;;5.84;91.92;98619.81;4983806;28;20078;-63
2021/11/04 07:50:11;;;;;;;53.07;26.20;;;;;;;5.70;92.88;98620.38;4977350;28;20054;-64
2021/11/04 07:52:57;;;;;;;50.00;23.60;;;;;;;5.60;92.26;98614.28;4973633;28;20431;-62
2021/11/04 07:55:42;;;;;;;46.33;23.17;;;;;;;5.69;92.67;98613.38;4973941;28;20532;-65
2021/11/04 07:58:28;;;;;;;63.95;25.90;;;;;;;5.54;92.34;98599.75;4977222;28;20065;-64
2021/11/04 08:01:14;;;;;;;49.75;23.17;;;;;;;5.62;92.88;98595.50;4988205;28;20542;-64
2021/11/04 08:03:59;;;;;;;64.47;30.55;;;;;;;5.78;92.35;98591.13;4972995;28;20109;-61
2021/11/04 08:06:44;;;;;;;57.30;23.48;;;;;;;5.89;91.56;98571.41;4973619;28;20070;-63
2021/11/04 08:09:30;;;;;;;47.22;22.77;;;;;;;5.81;92.16;98569.53;4973249;28;20049;-62
2021/11/04 08:12:14;;;;;;;57.53;26.33;;;;;;;5.68;92.04;98568.25;5014488;22;20132;-63
2021/11/04 08:15:01;;;;;;;59.33;23.58;;;;;;;5.73;93.10;98560.66;5010634;28;21531;-63
2021/11/04 08:17:46;;;;;;;62.10;31.80;;;;;;;5.76;92.57;98552.34;5012952;28;20064;-63
2021/11/04 08:20:31;;;;;;;113.00;63.38;;;;;;;5.83;93.20;98553.41;5016309;28;20593;-61
2021/11/04 08:23:16;;;;;;;61.13;26.17;;;;;;;5.80;92.82;98538.59;5003277;28;20053;-63
2021/11/04 08:26:02;;;;;;;55.87;25.73;;;;;;;5.62;93.78;98539.59;5011799;28;20539;-62
2021/11/04 08:28:47;;;;;;;60.15;26.10;;;;;;;5.71;93.96;98539.50;5007437;28;20058;-64
2021/11/04 08:31:33;;;;;;;61.15;27.83;;;;;;;5.70;94.73;98537.00;4996022;28;20057;-62
2021/11/04 08:34:18;;;;;;;54.55;23.92;;;;;;;5.63;94.81;98533.28;4994243;28;20124;-62
2021/11/04 08:37:03;;;;;;;66.95;26.77;;;;;;;5.61;96.01;98521.97;5007738;28;20511;-63
2021/11/04 08:39:48;;;;;;;65.63;25.90;;;;;;;5.55;96.07;98516.25;4992629;28;20061;-63
2021/11/04 08:42:34;;;;;;;68.72;27.85;;;;;;;5.58;95.19;98518.63;4997003;28;20057;-63
2021/11/04 08:45:20;;;;;;;65.60;25.77;;;;;;;5.45;97.24;98509.38;5010779;28;20057;-63
2021/11/04 08:48:06;;;;;;;71.32;27.85;;;;;;;5.45;98.73;98502.22;4997765;28;20117;-63
2021/11/04 08:50:51;;;;;;;68.72;27.35;;;;;;;5.33;99.07;98510.56;5002291;28;20047;-63
2021/11/04 08:53:37;;;;;;;76.38;26.67;;;;;;;5.29;99.22;98515.38;5008970;28;20064;-62
2021/11/04 08:56:21;;;;;;;69.57;27.30;;;;;;;5.28;99.77;98524.34;4995600;28;20052;-64
2021/11/04 08:59:07;;;;;;;68.90;26.75;;;;;;;5.20;99.98;98516.28;5009169;28;20137;-62
2021/11/04 09:01:51;;;;;;;68.22;26.45;;;;;;;5.31;100.00;98512.56;4991734;28;20512;-62
2021/11/04 09:04:41;;;;;;;70.75;25.10;;;;;;;5.21;100.00;98510.84;5002793;28;20058;-61
2021/11/04 09:07:26;;;;;;;55.17;23.45;;;;;;;5.27;100.00;98496.91;5005782;28;20061;-63
2021/11/04 09:10:12;;;;;;;58.50;25.02;;;;;;;5.34;100.00;98502.47;4999798;28;20057;-62
2021/11/04 09:12:58;;;;;;;64.53;24.63;;;;;;;5.30;99.76;98501.06;5014669;28;20156;-64
2021/11/04 09:15:43;;;;;;;68.28;26.40;;;;;;;5.34;99.91;98491.00;5016713;28;20060;-63
2021/11/04 09:18:28;;;;;;;55.67;24.55;;;;;;;5.29;100.00;98502.91;5008812;28;20471;-64
2021/11/04 09:21:14;;;;;;;53.13;21.77;;;;;;;5.33;100.00;98505.25;5002021;28;20172;-62
2021/11/04 09:24:00;;;;;;;59.30;23.80;;;;;;;5.35;100.00;98490.81;4992576;28;20566;-63
2021/11/04 09:26:45;;;;;;;55.72;22.40;;;;;;;5.36;100.00;98484.50;4991016;28;20120;-62
2021/11/04 09:29:31;;;;;;;63.27;24.60;;;;;;;5.31;100.00;98476.16;5011085;28;20052;-63
2021/11/04 09:32:16;;;;;;;50.35;21.38;;;;;;;5.45;99.68;98475.63;5010259;28;20056;-61
2021/11/04 09:35:03;;;;;;;51.13;20.73;;;;;;;5.39;99.78;98473.56;5002783;28;20053;-63
2021/11/04 09:37:50;;;;;;;55.20;23.95;;;;;;;5.37;99.91;98472.03;4993860;28;20133;-63
2021/11/04 09:40:35;;;;;;;47.92;18.48;;;;;;;5.50;99.47;98465.34;5003873;28;20057;-63
2021/11/04 09:43:20;;;;;;;59.95;22.00;;;;;;;5.38;100.00;98460.41;4992884;28;20076;-63
2021/11/04 09:46:05;;;;;;;46.83;21.17;;;;;;;5.40;99.54;98453.09;4993044;28;20153;-63
2021/11/04 09:48:51;;;;;;;49.13;19.23;;;;;;;5.56;99.56;98448.75;4992710;28;20053;-65
2021/11/04 09:51:37;;;;;;;53.47;20.20;;;;;;;5.47;99.42;98432.88;4994173;28;20515;-63
2021/11/04 09:54:24;;;;;;;42.92;20.58;;;;;;;5.47;99.40;98428.41;5002151;28;20064;-63
2021/11/04 09:57:09;;;;;;;46.38;20.10;;;;;;;5.35;100.00;98426.97;4992760;28;20208;-64
2021/11/04 09:59:55;;;;;;;49.50;19.85;;;;;;;5.31;100.00;98416.78;5006134;28;20523;-67
2021/11/04 10:02:43;;;;;;;47.63;18.00;;;;;;;5.33;100.00;98431.63;4991182;28;20057;-64
2021/11/04 10:05:28;;;;;;;41.70;17.15;;;;;;;5.35;100.00;98416.34;4998340;28;20412;-62
2021/11/04 10:08:15;;;;;;;47.13;19.20;;;;;;;5.30;100.00;98418.63;4999720;28;20056;-63
2021/11/04 10:11:07;;;;;;;39.05;16.95;;;;;;;5.41;100.00;98412.22;4991858;28;20056;-64
2021/11/04 10:13:51;;;;;;;42.05;17.20;;;;;;;5.32;100.00;98408.66;5005885;28;20296;-64
2021/11/04 10:16:38;;;;;;;38.65;16.38;;;;;;;5.29;100.00;98404.47;5008674;28;20057;-60
2021/11/04 10:19:23;;;;;;;40.00;17.33;;;;;;;5.31;100.00;98396.34;5014949;28;20072;-60
2021/11/04 10:22:08;;;;;;;30.73;14.93;;;;;;;5.36;100.00;98387.91;4997359;28;20057;-61
2021/11/04 10:24:55;;;;;;;31.48;14.90;;;;;;;5.36;100.00;98399.38;5000144;28;20566;-61
2021/11/04 10:27:41;;;;;;;40.35;15.43;;;;;;;5.29;100.00;98377.03;4990957;28;20065;-61
2021/11/04 10:30:39;;;;;;;28.60;14.02;;;;;;;5.39;100.00;98383.09;4991554;28;20057;-62
2021/11/04 10:33:27;;;;;;;28.33;12.70;;;;;;;5.36;100.00;98377.28;5001390;28;20510;-60
2021/11/04 10:36:15;;;;;;;28.80;13.73;;;;;;;5.38;100.00;98375.28;5001685;28;20519;-61
2021/11/04 10:39:01;;;;;;;30.45;14.00;;;;;;;5.28;100.00;98370.06;4998407;28;20487;-63
2021/11/04 10:41:46;;;;;;;32.20;15.60;;;;;;;5.23;100.00;98362.56;5002477;28;20053;-60
2021/11/04 10:44:33;;;;;;;34.63;15.13;;;;;;;5.34;100.00;98358.81;5004531;28;20065;-62
2021/11/04 10:47:19;;;;;;;36.05;15.18;;;;;;;5.28;100.00;98356.75;4993961;28;20062;-62
2021/11/04 10:50:05;;;;;;;37.58;14.88;;;;;;;5.37;100.00;98360.31;5022186;28;20514;-63
2021/11/04 10:52:50;;;;;;;32.42;14.00;;;;;;;5.28;100.00;98368.22;5035153;28;20473;-61
2021/11/04 10:55:35;;;;;;;30.05;14.30;;;;;;;5.31;100.00;98364.41;5034525;28;20060;-62
2021/11/04 10:58:32;;;;;;;34.90;14.60;;;;;;;5.30;100.00;98360.09;5035183;28;20052;-63
2021/11/04 11:01:31;;;;;;;31.75;13.65;;;;;;;5.31;100.00;98358.28;5035105;28;20076;-61
2021/11/04 11:04:17;;;;;;;29.23;12.70;;;;;;;5.29;100.00;98361.91;5034714;28;20064;-61
2021/11/04 11:07:03;;;;;;;31.40;12.18;;;;;;;5.29;100.00;98361.91;5020825;28;20411;-65
2021/11/04 11:09:48;;;;;;;25.55;11.70;;;;;;;5.23;100.00;98362.56;5025055;28;20522;-62
2021/11/04 11:12:33;;;;;;;24.02;10.88;;;;;;;5.23;100.00;98365.22;5014900;28;20060;-64
2021/11/04 11:15:18;;;;;;;29.70;11.98;;;;;;;5.27;100.00;98353.28;5030383;28;20514;-63
2021/11/04 11:18:06;;;;;;;25.53;12.70;;;;;;;5.24;100.00;98344.78;5014558;28;20056;-65
2021/11/04 11:20:52;;;;;;;23.15;11.68;;;;;;;5.20;100.00;98356.69;5014558;28;20056;-59
2021/11/04 11:23:37;;;;;;;;;;;;;;;5.21;100.00;98353.06;5008746;28;20061;-60
2021/11/04 11:26:23;;;;;;;25.40;11.05;;;;;;;5.22;100.00;98349.41;5010636;28;20064;-62
2021/11/04 11:29:08;;;;;;;24.00;9.30;;;;;;;5.21;100.00;98347.75;5008873;28;20580;-64
2021/11/04 11:31:56;;;;;;;21.63;10.05;;;;;;;5.24;100.00;98348.28;5014632;28;20204;-61
2021/11/04 11:34:42;;;;;;;22.48;9.63;;;;;;;5.26;100.00;98345.44;5003873;28;20061;-63
2021/11/04 11:37:27;;;;;;;22.88;10.60;;;;;;;5.28;100.00;98349.63;4994334;28;20105;-62
2021/11/04 11:40:14;;;;;;;21.52;10.20;;;;;;;5.25;100.00;98343.78;4994892;28;20507;-61
2021/11/04 11:43:01;;;;;;;18.95;9.27;;;;;;;5.28;100.00;98359.41;4994857;28;20144;-62
2021/11/04 11:46:01;;;;;;;22.20;10.00;;;;;;;5.24;100.00;98352.75;4994013;28;20057;-66
2021/11/04 11:49:18;;;;;;;17.85;8.98;;;;;;;5.24;100.00;98358.06;5016827;28;20142;-62
2021/11/04 11:52:05;;;;;;;16.25;7.63;;;;;;;5.24;100.00;98358.06;5032758;28;20057;-60
2021/11/04 11:55:08;;;;;;;23.35;9.27;;;;;;;5.25;100.00;98349.09;5030732;28;20095;-64
2021/11/04 11:58:19;;;;;;;18.35;9.13;;;;;;;5.27;100.00;98352.44;4996218;28;20062;-62
2021/11/04 12:01:09;;;;;;;16.60;8.43;;;;;;;5.32;100.00;98349.28;4993479;28;20065;-59
2021/11/04 12:04:00;;;;;;;18.50;8.40;;;;;;;5.31;100.00;98348.47;5001152;28;20535;-60
2021/11/04 12:06:45;;;;;;;12.77;7.43;;;;;;;5.34;100.00;98350.81;5000131;28;20057;-61
2021/11/04 12:09:41;;;;;;;13.40;6.63;;;;;;;5.35;100.00;98349.84;5006238;28;20060;-71
2021/11/04 12:12:46;;;;;;;11.38;6.07;;;;;;;5.37;100.00;98347.00;5012565;28;20056;-65
2021/11/04 12:15:31;;;;;;;15.60;6.05;;;;;;;5.37;100.00;98342.53;5002520;28;20064;-65
2021/11/04 12:18:17;;;;;;;15.95;8.13;;;;;;;5.39;100.00;98334.38;5004906;28;20535;-62
2021/11/04 12:21:04;;;;;;;12.23;6.32;;;;;;;5.41;100.00;98333.22;5014408;28;20049;-61
2021/11/04 12:23:49;;;;;;;;;;;;;;;5.44;100.00;98332.91;5025254;28;20059;-59
2021/11/04 12:26:37;;;;;;;14.57;6.35;;;;;;;5.47;100.00;98331.78;5011349;28;19928;-62
2021/11/04 12:29:24;;;;;;;11.15;5.25;;;;;;;5.50;100.00;98336.78;5000646;28;20101;-60
2021/11/04 12:32:11;;;;;;;14.77;7.25;;;;;;;5.50;100.00;98331.44;4993700;28;20614;-67
2021/11/04 12:34:58;;;;;;;10.40;6.35;;;;;;;5.50;100.00;98332.28;5000633;28;20149;-60
2021/11/04 12:37:44;;;;;;;10.25;5.57;;;;;;;5.56;100.00;98337.00;4995060;28;20049;-65
2021/11/04 12:40:29;;;;;;;12.35;5.97;;;;;;;5.56;100.00;98331.66;4994755;28;20061;-61
2021/11/04 12:43:15;;;;;;;11.93;6.72;;;;;;;5.60;100.00;98339.31;4998080;28;20053;-66
2021/11/04 12:46:12;;;;;;;11.88;5.65;;;;;;;5.64;100.00;98332.69;5001308;28;20052;-65
2021/11/04 12:48:59;;;;;;;11.98;5.72;;;;;;;5.65;100.00;98340.50;4996367;28;20054;-63
2021/11/04 12:51:48;;;;;;;8.38;4.53;;;;;;;5.66;100.00;98338.69;4999385;28;20116;-64
2021/11/04 12:54:35;;;;;;;11.20;4.63;;;;;;;5.70;100.00;98342.72;4998058;28;20570;-61
2021/11/04 12:57:22;;;;;;;12.48;5.75;;;;;;;5.73;100.00;98347.69;5001016;28;20512;-58
2021/11/04 13:00:09;;;;;;;8.45;4.45;;;;;;;5.73;100.00;98337.88;5003483;28;20463;-62